Time;durP1;ratioP1;P1;durP2;ratioP2;P2;SDS_P1;SDS_P2;PMS_P1;PMS_P2;Temp;Humidity;BMP_temperature;BMP_pressure;BME280_temperature;BME280_humidity;BME280_pressure;Samples;Min_cycle;Max_cycle;Signal;HPM_P1;HPM_P2
2024/01/18 00:01:09;;;;;;;29.67;26.57;;;1.80;99.90;;;;;;5029269;28;20706;-38
2024/01/18 00:03:38;;;;;;;29.00;26.27;;;1.80;99.90;;;;;;5026701;28;20228;-37
2024/01/18 00:06:04;;;;;;;30.55;27.45;;;1.80;99.90;;;;;;5034020;28;20844;-37
2024/01/18 00:08:30;;;;;;;28.87;26.23;;;1.80;99.90;;;;;;5031075;28;20176;-37
2024/01/18 00:10:55;;;;;;;28.63;25.87;;;1.80;99.90;;;;;;5028445;28;20180;-37
2024/01/18 00:13:21;;;;;;;30.40;27.30;;;1.80;99.90;;;;;;5029414;28;20186;-38
2024/01/18 00:15:46;;;;;;;28.10;25.50;;;1.80;99.90;;;;;;5027263;28;20194;-55
2024/01/18 00:18:12;;;;;;;30.63;27.57;;;1.80;99.90;;;;;;5033481;28;21062;-55
2024/01/18 00:20:38;;;;;;;30.73;27.53;;;1.80;99.90;;;;;;5026092;28;20563;-53
2024/01/18 00:23:03;;;;;;;30.67;26.83;;;1.80;99.90;;;;;;5039494;28;20619;-52
2024/01/18 00:25:29;;;;;;;30.43;26.90;;;1.80;99.90;;;;;;5026026;28;20255;-53
2024/01/18 00:27:54;;;;;;;30.77;27.80;;;1.80;99.90;;;;;;5004605;28;20181;-55
2024/01/18 00:30:20;;;;;;;31.57;28.27;;;1.80;99.90;;;;;;5022836;28;20185;-54
2024/01/18 00:32:46;;;;;;;30.13;27.23;;;1.70;99.90;;;;;;5032964;28;20226;-53
2024/01/18 00:35:11;;;;;;;30.47;27.37;;;1.70;99.90;;;;;;5021767;28;20183;-50
2024/01/18 00:37:37;;;;;;;31.37;28.10;;;1.70;99.90;;;;;;5022422;28;20220;-51
2024/01/18 00:40:03;;;;;;;31.13;28.10;;;1.70;99.90;;;;;;5022443;28;20276;-54
2024/01/18 00:42:28;;;;;;;31.67;28.40;;;1.70;99.90;;;;;;5022840;28;20190;-54
2024/01/18 00:44:54;;;;;;;31.90;28.43;;;1.70;99.90;;;;;;5024864;28;20440;-53
2024/01/18 00:47:20;;;;;;;31.13;28.03;;;1.70;99.90;;;;;;5032089;28;20264;-54
2024/01/18 00:49:45;;;;;;;31.13;28.20;;;1.70;99.90;;;;;;5027492;28;20198;-54
2024/01/18 00:52:11;;;;;;;34.20;28.50;;;1.70;99.90;;;;;;5023803;28;20185;-50
2024/01/18 00:54:36;;;;;;;32.37;28.83;;;1.70;99.90;;;;;;5040496;28;20189;-54
2024/01/18 00:57:02;;;;;;;31.30;28.20;;;1.70;99.90;;;;;;5024142;28;20272;-38
2024/01/18 00:59:28;;;;;;;34.10;29.10;;;1.70;99.90;;;;;;5024079;28;20185;-38
2024/01/18 01:01:54;;;;;;;33.97;28.25;;;1.70;99.90;;;;;;5027290;28;20269;-38
2024/01/18 01:04:19;;;;;;;33.63;30.03;;;1.70;99.90;;;;;;5025844;28;20188;-37
2024/01/18 01:06:45;;;;;;;35.10;30.30;;;1.70;99.90;;;;;;5023455;28;20241;-38
2024/01/18 01:09:11;;;;;;;36.00;30.93;;;1.70;99.90;;;;;;5027974;28;20214;-42
2024/01/18 01:11:37;;;;;;;35.67;31.15;;;1.60;99.90;;;;;;5029066;28;20205;-38
2024/01/18 01:14:02;;;;;;;31.97;28.57;;;1.70;99.90;;;;;;5028162;28;20265;-37
2024/01/18 01:16:28;;;;;;;37.50;31.10;;;1.70;99.90;;;;;;5030111;28;20198;-38
2024/01/18 01:18:53;;;;;;;36.47;31.23;;;1.70;99.90;;;;;;5026950;28;20264;-38
2024/01/18 01:21:19;;;;;;;34.27;28.93;;;1.70;99.90;;;;;;5031344;28;20185;-40
2024/01/18 01:23:48;;;;;;;35.30;31.50;;;1.60;99.90;;;;;;5033887;28;20189;-38
2024/01/18 01:26:15;;;;;;;40.65;31.67;;;1.70;99.90;;;;;;5037254;28;20211;-39
2024/01/18 01:28:40;;;;;;;35.53;30.45;;;1.60;99.90;;;;;;5033943;28;20604;-37
2024/01/18 01:31:06;;;;;;;36.77;30.10;;;1.60;99.90;;;;;;5039736;28;20196;-37
2024/01/18 01:33:32;;;;;;;37.80;31.23;;;1.60;99.90;;;;;;5032501;28;20173;-37
2024/01/18 01:35:57;;;;;;;36.67;31.03;;;1.60;99.90;;;;;;5027469;28;20584;-38
2024/01/18 01:38:23;;;;;;;35.47;31.50;;;1.50;99.90;;;;;;5036554;28;20191;-37
2024/01/18 01:40:48;;;;;;;35.30;31.50;;;1.50;99.90;;;;;;5028165;28;20212;-39
2024/01/18 01:43:15;;;;;;;36.50;30.57;;;1.50;99.90;;;;;;5031847;28;20731;-38
2024/01/18 01:45:41;;;;;;;35.33;31.13;;;1.50;99.90;;;;;;5030030;28;20773;-40
2024/01/18 01:48:08;;;;;;;33.77;30.20;;;1.50;99.90;;;;;;5034382;28;20193;-37
2024/01/18 01:50:34;;;;;;;37.75;30.73;;;1.50;99.90;;;;;;5037481;28;20209;-37
2024/01/18 01:53:00;;;;;;;34.92;30.40;;;1.50;99.90;;;;;;5032048;28;20242;-38
2024/01/18 01:55:25;;;;;;;38.27;31.63;;;1.50;99.90;;;;;;5022554;28;20195;-52
2024/01/18 01:57:51;;;;;;;33.73;30.03;;;1.40;99.90;;;;;;5030861;28;20220;-49
2024/01/18 02:00:17;;;;;;;36.73;31.20;;;1.40;99.90;;;;;;5020867;28;20197;-54
2024/01/18 02:02:44;;;;;;;35.47;31.65;;;1.40;99.90;;;;;;5027249;28;20238;-51
2024/01/18 02:05:10;;;;;;;39.25;30.63;;;1.30;99.90;;;;;;5039198;28;20215;-52
2024/01/18 02:07:36;;;;;;;36.22;30.13;;;1.30;99.90;;;;;;5032786;28;20311;-45
2024/01/18 02:10:04;;;;;;;32.83;29.30;;;1.30;99.90;;;;;;5024085;28;20283;-51
2024/01/18 02:12:31;;;;;;;35.42;30.13;;;1.30;99.90;;;;;;5023127;28;20292;-51
2024/01/18 02:14:57;;;;;;;37.72;31.90;;;1.40;99.90;;;;;;5029202;28;20221;-52
2024/01/18 02:17:22;;;;;;;34.97;30.20;;;1.30;99.90;;;;;;5030226;28;20240;-53
2024/01/18 02:19:48;;;;;;;35.53;30.60;;;1.30;99.90;;;;;;5036283;28;20690;-50
2024/01/18 02:22:17;;;;;;;37.27;30.00;;;1.30;99.90;;;;;;5027368;28;20234;-53
2024/01/18 02:24:50;;;;;;;36.50;31.83;;;1.30;99.90;;;;;;5035806;28;20259;-50
2024/01/18 02:27:16;;;;;;;37.40;30.50;;;1.20;99.90;;;;;;5023329;28;20179;-53
2024/01/18 02:29:43;;;;;;;31.73;28.43;;;1.20;99.90;;;;;;5029362;28;20196;-52
2024/01/18 02:32:09;;;;;;;37.72;30.92;;;1.20;99.90;;;;;;5026195;28;20216;-50
2024/01/18 02:34:39;;;;;;;36.10;30.80;;;1.20;99.90;;;;;;5024986;28;20268;-52
2024/01/18 02:37:08;;;;;;;35.33;30.10;;;1.20;99.90;;;;;;5036534;28;20580;-51
2024/01/18 02:39:34;;;;;;;36.65;30.00;;;1.20;99.90;;;;;;5031286;28;20183;-49
2024/01/18 02:42:01;;;;;;;37.00;29.83;;;1.20;99.90;;;;;;5035291;28;20188;-54
2024/01/18 02:44:27;;;;;;;33.70;29.50;;;1.20;99.90;;;;;;5031911;28;20196;-48
2024/01/18 02:46:53;;;;;;;35.20;30.83;;;1.10;99.90;;;;;;5028047;28;20734;-54
2024/01/18 02:49:19;;;;;;;33.17;29.50;;;1.10;99.90;;;;;;5027596;28;20428;-49
2024/01/18 02:51:45;;;;;;;36.45;30.77;;;1.10;99.90;;;;;;5029540;28;20668;-55
2024/01/18 02:54:11;;;;;;;37.43;30.50;;;1.10;99.90;;;;;;5038784;28;20179;-37
2024/01/18 02:56:39;;;;;;;34.97;31.07;;;1.10;99.90;;;;;;5033096;28;20200;-39
2024/01/18 02:59:05;;;;;;;35.80;30.48;;;1.10;99.90;;;;;;5027144;28;20543;-39
2024/01/18 03:01:31;;;;;;;36.27;30.47;;;1.10;99.90;;;;;;5032249;28;20194;-39
2024/01/18 03:03:57;;;;;;;33.80;29.30;;;1.10;99.90;;;;;;5030652;28;20185;-38
2024/01/18 03:06:23;;;;;;;33.25;29.63;;;1.10;99.90;;;;;;5030310;28;20208;-37
2024/01/18 03:08:49;;;;;;;37.50;30.60;;;1.20;99.90;;;;;;5037325;28;20208;-37
2024/01/18 03:11:15;;;;;;;38.53;32.42;;;1.20;99.90;;;;;;5031273;28;20428;-37
2024/01/18 03:13:40;;;;;;;35.38;30.45;;;1.20;99.90;;;;;;5034690;28;20180;-37
2024/01/18 03:16:09;;;;;;;32.93;28.90;;;1.10;99.90;;;;;;5035127;28;20285;-37
2024/01/18 03:18:35;;;;;;;38.05;30.25;;;1.10;99.90;;;;;;5040404;28;21060;-37
2024/01/18 03:21:05;;;;;;;36.90;31.67;;;1.10;99.90;;;;;;5038577;28;20189;-39
2024/01/18 03:23:30;;;;;;;38.35;31.27;;;1.10;99.90;;;;;;5033606;28;20426;-38
2024/01/18 03:25:57;;;;;;;41.25;32.22;;;1.10;99.90;;;;;;5036667;28;20256;-53
2024/01/18 03:28:23;;;;;;;35.60;29.93;;;1.10;99.90;;;;;;5023559;28;20310;-54
2024/01/18 03:30:48;;;;;;;32.17;27.90;;;1.10;99.90;;;;;;5029866;28;20187;-53
2024/01/18 03:33:14;;;;;;;34.60;28.50;;;1.10;99.90;;;;;;5034470;28;20271;-54
2024/01/18 03:35:41;;;;;;;32.33;27.97;;;1.00;99.90;;;;;;5026155;28;20551;-51
2024/01/18 03:38:07;;;;;;;33.67;27.55;;;1.00;99.90;;;;;;5028835;28;20229;-54
2024/01/18 03:40:33;;;;;;;36.70;27.63;;;1.10;99.90;;;;;;5042473;28;20244;-52
2024/01/18 03:42:58;;;;;;;28.57;25.57;;;1.00;99.90;;;;;;5033323;28;20190;-53
2024/01/18 03:45:24;;;;;;;32.13;26.17;;;1.00;99.90;;;;;;5029308;28;20695;-54
2024/01/18 03:47:50;;;;;;;28.90;25.30;;;1.00;99.90;;;;;;5023205;28;20599;-52
2024/01/18 03:50:16;;;;;;;26.88;24.15;;;1.00;99.90;;;;;;5033794;28;20242;-53
2024/01/18 03:52:42;;;;;;;29.23;25.37;;;1.00;99.90;;;;;;5034486;28;20603;-46
2024/01/18 03:55:08;;;;;;;27.63;24.65;;;1.00;99.90;;;;;;5033291;28;20190;-48
2024/01/18 03:57:34;;;;;;;27.47;24.80;;;1.00;99.90;;;;;;5037282;28;20617;-52
2024/01/18 03:59:59;;;;;;;26.07;23.27;;;1.00;99.90;;;;;;5029964;28;20191;-53
2024/01/18 04:02:25;;;;;;;26.50;23.90;;;1.00;99.90;;;;;;5021734;28;20286;-53
2024/01/18 04:04:50;;;;;;;26.73;23.83;;;0.90;99.90;;;;;;5033437;28;20187;-51
2024/01/18 04:07:18;;;;;;;25.10;22.60;;;0.90;99.90;;;;;;5031402;28;20195;-53
2024/01/18 04:09:44;;;;;;;27.08;24.35;;;0.90;99.90;;;;;;5030603;28;20197;-55
2024/01/18 04:12:10;;;;;;;26.40;23.70;;;0.80;99.90;;;;;;5024352;28;20183;-54
2024/01/18 04:14:35;;;;;;;25.27;22.83;;;0.80;99.90;;;;;;5031980;28;20179;-54
2024/01/18 04:17:01;;;;;;;26.03;23.47;;;0.80;99.90;;;;;;5041968;28;20945;-53
2024/01/18 04:19:26;;;;;;;25.03;22.53;;;0.70;99.90;;;;;;5030326;28;20303;-55
2024/01/18 04:21:52;;;;;;;30.93;23.57;;;0.70;99.90;;;;;;5041208;28;20212;-50
2024/01/18 04:24:18;;;;;;;24.73;22.43;;;0.70;99.90;;;;;;5034723;28;20287;-53
2024/01/18 04:26:43;;;;;;;26.30;23.60;;;0.70;99.90;;;;;;5022884;28;20329;-52
2024/01/18 04:29:09;;;;;;;26.97;24.10;;;0.60;99.90;;;;;;5030212;28;20183;-53
2024/01/18 04:31:35;;;;;;;27.20;23.80;;;0.70;99.90;;;;;;5030808;28;20184;-55
2024/01/18 04:34:00;;;;;;;30.90;25.87;;;0.60;99.90;;;;;;5032725;28;20532;-53
2024/01/18 04:36:26;;;;;;;26.80;24.00;;;0.70;99.90;;;;;;5030823;28;20228;-53
2024/01/18 04:38:51;;;;;;;30.50;24.63;;;0.60;99.90;;;;;;5022709;28;20187;-49
2024/01/18 04:41:17;;;;;;;27.73;23.53;;;0.60;99.90;;;;;;5022758;28;20645;-54
2024/01/18 04:43:43;;;;;;;28.73;24.20;;;0.70;99.90;;;;;;5024387;28;20195;-50
2024/01/18 04:46:10;;;;;;;27.00;24.30;;;0.70;99.90;;;;;;5039336;28;20215;-55
2024/01/18 04:48:36;;;;;;;28.17;24.23;;;0.70;99.90;;;;;;5031769;28;20180;-38
2024/01/18 04:51:03;;;;;;;28.70;25.48;;;0.60;99.90;;;;;;5021499;28;20177;-38
2024/01/18 04:53:29;;;;;;;28.50;25.50;;;0.70;99.90;;;;;;5036845;28;20198;-38
2024/01/18 04:55:55;;;;;;;26.67;23.83;;;0.70;99.90;;;;;;5027250;28;20198;-37
2024/01/18 04:58:21;;;;;;;28.20;24.63;;;0.60;99.90;;;;;;5027238;28;20995;-38
2024/01/18 05:00:47;;;;;;;26.47;23.70;;;0.60;99.90;;;;;;5023478;28;20431;-38
2024/01/18 05:03:12;;;;;;;26.50;23.43;;;0.60;99.90;;;;;;5028500;28;20438;-38
2024/01/18 05:05:38;;;;;;;27.63;24.70;;;0.60;99.90;;;;;;5032287;28;20214;-38
2024/01/18 05:08:04;;;;;;;27.63;24.70;;;0.60;99.90;;;;;;5039470;28;20191;-37
2024/01/18 05:10:30;;;;;;;27.13;24.30;;;0.60;99.90;;;;;;5030236;28;20192;-38
2024/01/18 05:12:56;;;;;;;27.83;24.77;;;0.60;99.90;;;;;;5025509;28;20422;-38
2024/01/18 05:15:24;;;;;;;25.48;22.65;;;0.60;99.90;;;;;;5033253;28;20259;-38
2024/01/18 05:17:50;;;;;;;29.38;23.60;;;0.60;99.90;;;;;;5033951;28;20184;-38
2024/01/18 05:20:17;;;;;;;28.30;24.80;;;0.60;99.90;;;;;;5028542;28;20588;-38
2024/01/18 05:22:43;;;;;;;32.72;25.42;;;0.60;99.90;;;;;;5003601;28;20257;-38
2024/01/18 05:25:08;;;;;;;27.27;24.47;;;0.60;99.90;;;;;;5033567;28;21010;-38
2024/01/18 05:27:34;;;;;;;27.23;24.40;;;0.60;99.90;;;;;;5023965;28;20414;-37
2024/01/18 05:30:00;;;;;;;27.73;24.57;;;0.60;99.90;;;;;;5031091;28;20200;-38
2024/01/18 05:32:26;;;;;;;29.00;24.40;;;0.60;99.90;;;;;;5025897;28;20202;-38
2024/01/18 05:34:52;;;;;;;25.95;23.33;;;0.60;99.90;;;;;;5021910;28;20250;-38
2024/01/18 05:37:22;;;;;;;26.77;22.98;;;0.50;99.90;;;;;;5021893;28;20702;-38
2024/01/18 05:39:48;;;;;;;29.92;22.48;;;0.60;99.90;;;;;;5021030;28;20188;-39
2024/01/18 05:42:13;;;;;;;28.35;24.33;;;0.50;99.90;;;;;;5020509;28;20350;-38
2024/01/18 05:44:39;;;;;;;27.83;24.90;;;0.50;99.90;;;;;;5019715;28;20172;-40
2024/01/18 05:47:05;;;;;;;28.52;23.40;;;0.50;99.90;;;;;;5027604;28;20250;-37
2024/01/18 05:49:31;;;;;;;27.10;24.30;;;0.50;99.90;;;;;;5038932;28;20270;-39
2024/01/18 05:51:56;;;;;;;24.10;21.50;;;0.40;99.90;;;;;;5020125;28;20193;-38
2024/01/18 05:54:22;;;;;;;26.67;22.33;;;0.40;99.90;;;;;;5020068;28;20183;-37
2024/01/18 05:56:48;;;;;;;30.70;24.20;;;0.40;99.90;;;;;;5020347;28;20195;-38
2024/01/18 05:59:14;;;;;;;31.05;24.60;;;0.40;99.90;;;;;;5020275;28;20187;-38
2024/01/18 06:01:39;;;;;;;30.33;24.13;;;0.40;99.90;;;;;;5024390;28;20253;-40
2024/01/18 06:04:06;;;;;;;29.90;24.40;;;0.40;99.90;;;;;;5036643;28;20179;-37
2024/01/18 06:06:32;;;;;;;28.45;22.48;;;0.40;99.90;;;;;;5033316;28;20465;-51
2024/01/18 06:08:57;;;;;;;22.97;20.47;;;0.40;99.90;;;;;;5036856;28;20255;-48
2024/01/18 06:11:24;;;;;;;22.63;20.30;;;0.40;99.90;;;;;;5018881;28;20195;-50
2024/01/18 06:13:50;;;;;;;25.73;21.58;;;0.40;99.90;;;;;;5032274;28;20580;-54
2024/01/18 06:16:16;;;;;;;24.50;21.90;;;0.40;99.90;;;;;;5028997;28;20187;-51
2024/01/18 06:18:45;;;;;;;25.93;23.23;;;0.40;99.90;;;;;;5038793;28;20470;-42
2024/01/18 06:21:10;;;;;;;22.75;20.65;;;0.40;99.90;;;;;;5036506;28;20179;-54
2024/01/18 06:23:36;;;;;;;24.33;21.70;;;0.40;99.90;;;;;;5004597;28;20195;-54
2024/01/18 06:26:03;;;;;;;26.73;21.52;;;0.30;99.90;;;;;;5029787;28;20496;-46
2024/01/18 06:28:28;;;;;;;24.30;21.52;;;0.30;99.90;;;;;;5035371;28;20331;-54
2024/01/18 06:30:54;;;;;;;31.07;23.70;;;0.30;99.90;;;;;;5031787;28;20243;-52
2024/01/18 06:33:20;;;;;;;25.23;21.97;;;0.30;99.90;;;;;;5026860;28;20938;-43
2024/01/18 06:35:46;;;;;;;28.87;23.57;;;0.20;99.90;;;;;;5037943;28;20186;-46
2024/01/18 06:38:12;;;;;;;26.13;23.23;;;0.20;99.90;;;;;;5040315;28;20289;-49
2024/01/18 06:40:38;;;;;;;24.20;21.33;;;0.20;99.90;;;;;;5033274;28;20180;-48
2024/01/18 06:43:04;;;;;;;28.27;24.10;;;0.20;99.90;;;;;;5038592;28;20248;-48
2024/01/18 06:45:29;;;;;;;31.33;24.73;;;0.20;99.90;;;;;;5036319;28;20241;-52
2024/01/18 06:47:55;;;;;;;29.30;25.10;;;0.10;99.90;;;;;;5033927;28;20422;-49
2024/01/18 06:50:22;;;;;;;26.73;23.50;;;0.00;99.90;;;;;;5042407;28;20247;-49
2024/01/18 06:52:48;;;;;;;27.05;24.17;;;0.00;99.90;;;;;;5037333;28;20963;-52
2024/01/18 06:55:14;;;;;;;25.90;23.20;;;0.00;99.90;;;;;;5036552;28;20191;-51
2024/01/18 06:57:40;;;;;;;27.13;24.33;;;0.00;99.90;;;;;;5035639;28;20190;-54
2024/01/18 07:00:06;;;;;;;27.00;24.17;;;0.10;99.90;;;;;;5032470;28;20440;-38
2024/01/18 07:02:33;;;;;;;33.15;26.77;;;0.10;99.90;;;;;;5037152;28;21113;-37
2024/01/18 07:04:59;;;;;;;28.33;24.60;;;0.20;99.90;;;;;;5033006;28;20179;-39
2024/01/18 07:07:25;;;;;;;34.37;25.27;;;0.20;99.90;;;;;;5029719;28;20693;-36
2024/01/18 07:09:51;;;;;;;32.78;24.58;;;0.20;99.90;;;;;;5032006;28;20506;-37
2024/01/18 07:12:16;;;;;;;29.93;25.90;;;0.20;99.90;;;;;;5031054;28;20183;-38
2024/01/18 07:14:42;;;;;;;30.93;24.73;;;0.20;99.90;;;;;;5041552;28;20705;-38
2024/01/18 07:17:08;;;;;;;29.35;24.95;;;0.30;99.90;;;;;;5035387;28;20184;-41
2024/01/18 07:19:34;;;;;;;30.60;26.20;;;0.30;99.90;;;;;;5032608;28;20244;-38
2024/01/18 07:21:59;;;;;;;35.13;25.07;;;0.20;99.90;;;;;;5031373;28;20189;-37
2024/01/18 07:24:27;;;;;;;31.00;25.10;;;0.30;99.90;;;;;;5042218;28;20619;-43
2024/01/18 07:26:53;;;;;;;31.27;25.58;;;0.30;99.90;;;;;;5038473;28;20702;-39
2024/01/18 07:29:18;;;;;;;30.97;27.00;;;0.30;99.90;;;;;;5037623;28;20191;-37
2024/01/18 07:31:44;;;;;;;31.80;25.07;;;0.30;99.90;;;;;;5028447;28;20660;-38
2024/01/18 07:34:10;;;;;;;30.00;25.00;;;0.40;99.90;;;;;;5033584;28;20841;-39
2024/01/18 07:36:36;;;;;;;29.75;26.55;;;0.40;99.90;;;;;;5038165;28;20175;-39
2024/01/18 07:39:02;;;;;;;30.80;26.80;;;0.40;99.90;;;;;;5033994;28;20195;-39
2024/01/18 07:41:28;;;;;;;31.65;26.20;;;0.40;99.90;;;;;;5039349;28;20215;-39
2024/01/18 07:43:53;;;;;;;30.37;27.03;;;0.40;99.90;;;;;;5037285;28;20195;-37
2024/01/18 07:46:19;;;;;;;34.27;26.13;;;0.40;99.90;;;;;;5040842;28;20598;-45
2024/01/18 07:48:45;;;;;;;32.40;26.13;;;0.50;99.90;;;;;;5033879;28;20174;-37
2024/01/18 07:51:10;;;;;;;30.20;25.70;;;0.40;99.90;;;;;;5039346;28;20191;-38
2024/01/18 07:53:36;;;;;;;31.93;27.50;;;0.50;99.90;;;;;;5033698;28;20191;-39
2024/01/18 07:56:01;;;;;;;30.60;25.77;;;0.50;99.90;;;;;;5028626;28;20193;-38
2024/01/18 07:58:27;;;;;;;35.93;27.90;;;0.50;99.90;;;;;;5025763;28;20530;-38
2024/01/18 08:00:53;;;;;;;31.80;26.57;;;0.50;99.90;;;;;;5026550;28;20186;-37
2024/01/18 08:03:18;;;;;;;30.80;26.47;;;0.60;99.90;;;;;;5035004;28;20183;-38
2024/01/18 08:05:44;;;;;;;31.80;27.10;;;0.50;99.90;;;;;;5041367;28;20466;-39
2024/01/18 08:08:10;;;;;;;33.83;27.57;;;0.60;99.90;;;;;;5038698;28;20183;-38
2024/01/18 08:10:35;;;;;;;34.33;29.07;;;0.70;99.90;;;;;;5040951;28;20544;-38
2024/01/18 08:13:02;;;;;;;37.83;29.30;;;0.70;99.90;;;;;;5040771;28;20176;-38
2024/01/18 08:15:28;;;;;;;33.30;27.77;;;0.70;99.90;;;;;;5037949;28;20645;-38
2024/01/18 08:17:53;;;;;;;32.90;27.87;;;0.80;99.90;;;;;;5038196;28;20195;-39
2024/01/18 08:20:19;;;;;;;33.50;29.70;;;0.80;99.90;;;;;;5022960;28;20516;-38
2024/01/18 08:22:45;;;;;;;30.58;27.33;;;0.80;99.90;;;;;;5033885;28;20249;-40
2024/01/18 08:25:11;;;;;;;32.23;28.90;;;0.90;99.90;;;;;;5036138;28;20195;-41
2024/01/18 08:27:39;;;;;;;34.90;27.95;;;1.00;99.90;;;;;;5035924;28;20215;-38
2024/01/18 08:30:06;;;;;;;34.72;29.63;;;0.90;90.00;;;;;;5002702;28;20681;-40
2024/01/18 08:32:34;;;;;;;35.40;28.77;;;0.90;94.00;;;;;;5006546;28;20215;-37
2024/01/18 08:35:06;;;;;;;32.35;28.85;;;0.90;86.20;;;;;;5038414;28;20176;-38
2024/01/18 08:37:35;;;;;;;35.15;31.35;;;1.00;90.70;;;;;;5037093;28;20202;-40
2024/01/18 08:40:02;;;;;;;30.83;27.63;;;0.90;79.90;;;;;;5037496;28;20984;-37
2024/01/18 08:42:27;;;;;;;35.78;30.60;;;1.00;91.20;;;;;;5029453;28;20236;-37
2024/01/18 08:44:53;;;;;;;40.97;31.30;;;1.00;92.20;;;;;;5039048;28;20266;-37
2024/01/18 08:47:19;;;;;;;32.63;28.40;;;1.00;91.90;;;;;;5040577;28;21020;-39
2024/01/18 08:49:44;;;;;;;37.50;29.20;;;1.00;94.10;;;;;;5038756;28;20175;-37
2024/01/18 08:52:10;;;;;;;40.77;31.50;;;1.10;92.10;;;;;;5033954;28;20439;-39
2024/01/18 08:54:36;;;;;;;33.77;30.00;;;1.00;94.10;;;;;;5039958;28;20773;-40
2024/01/18 08:57:02;;;;;;;35.50;30.37;;;1.10;93.80;;;;;;5028428;28;20431;-38
2024/01/18 08:59:27;;;;;;;33.67;28.77;;;1.10;93.60;;;;;;5022745;28;20725;-37
2024/01/18 09:01:54;;;;;;;37.23;31.40;;;1.10;95.00;;;;;;5032660;28;20426;-38
2024/01/18 09:04:20;;;;;;;42.28;30.50;;;1.20;97.20;;;;;;5030826;28;20175;-38
2024/01/18 09:06:46;;;;;;;32.77;29.20;;;1.20;98.30;;;;;;5032862;28;20385;-40
2024/01/18 09:09:13;;;;;;;33.57;28.67;;;1.20;97.90;;;;;;5009386;28;20192;-38
2024/01/18 09:11:39;;;;;;;38.08;29.17;;;1.20;99.90;;;;;;5032863;28;20184;-40
2024/01/18 09:14:05;;;;;;;32.70;28.35;;;1.20;99.90;;;;;;5034458;28;20687;-39
2024/01/18 09:16:31;;;;;;;34.47;30.80;;;1.20;99.90;;;;;;5039804;28;20548;-45
2024/01/18 09:18:57;;;;;;;40.60;30.77;;;1.20;99.90;;;;;;5029880;28;20224;-41
2024/01/18 09:21:23;;;;;;;39.83;30.88;;;1.20;99.90;;;;;;5031691;28;20440;-43
2024/01/18 09:23:49;;;;;;;39.93;29.17;;;1.20;99.90;;;;;;5032966;28;20477;-38
2024/01/18 09:26:14;;;;;;;34.77;29.70;;;1.20;92.20;;;;;;5040101;28;20215;-39
2024/01/18 09:28:41;;;;;;;34.67;28.23;;;1.10;91.20;;;;;;5039333;28;20175;-37
2024/01/18 09:31:06;;;;;;;72.10;51.67;;;1.10;89.20;;;;;;5031988;28;20175;-38
2024/01/18 09:33:32;;;;;;;51.30;40.10;;;1.00;91.20;;;;;;5028772;28;20184;-38
2024/01/18 09:35:57;;;;;;;36.93;32.93;;;1.00;86.20;;;;;;5032932;28;20193;-37
2024/01/18 09:38:25;;;;;;;33.27;29.73;;;0.90;86.00;;;;;;5025872;28;20188;-41
2024/01/18 09:40:51;;;;;;;41.00;36.70;;;0.90;99.40;;;;;;5032337;28;20650;-39
2024/01/18 09:43:17;;;;;;;37.95;33.72;;;0.90;92.00;;;;;;5034457;28;20619;-38
2024/01/18 09:45:47;;;;;;;35.07;31.40;;;0.80;87.30;;;;;;5032377;28;20684;-38
2024/01/18 09:48:14;;;;;;;35.40;29.30;;;0.80;92.50;;;;;;5039434;28;20418;-40
2024/01/18 09:50:44;;;;;;;29.42;26.42;;;0.90;99.50;;;;;;5038566;28;20533;-39
2024/01/18 09:53:11;;;;;;;31.73;27.30;;;0.90;94.20;;;;;;5027410;28;20649;-38
2024/01/18 09:55:37;;;;;;;32.72;28.30;;;1.00;97.90;;;;;;5030551;28;20463;-38
2024/01/18 09:58:03;;;;;;;28.87;25.70;;;1.00;97.70;;;;;;5039240;28;20210;-39
2024/01/18 10:00:31;;;;;;;28.88;25.73;;;1.10;95.40;;;;;;5027657;28;20547;-38
2024/01/18 10:02:57;;;;;;;28.50;25.55;;;1.10;74.00;;;;;;5031693;28;20559;-38
2024/01/18 10:05:25;;;;;;;30.55;26.52;;;1.20;58.60;;;;;;5031110;28;20211;-38
2024/01/18 10:07:51;;;;;;;30.50;27.13;;;1.20;56.50;;;;;;5038938;28;20180;-38
2024/01/18 10:10:18;;;;;;;39.22;35.05;;;1.20;65.30;;;;;;5028038;28;20477;-36
2024/01/18 10:12:47;;;;;;;33.60;29.13;;;1.30;75.00;;;;;;5032782;28;20186;-38
2024/01/18 10:15:35;;;;;;;33.88;28.55;;;1.30;58.80;;;;;;5028531;28;20194;-37
2024/01/18 10:18:04;;;;;;;31.70;28.23;;;1.40;58.00;;;;;;5039033;28;20174;-38
2024/01/18 10:20:31;;;;;;;33.83;29.30;;;1.40;58.40;;;;;;5030732;28;20178;-39
2024/01/18 10:22:58;;;;;;;32.13;28.13;;;1.40;54.40;;;;;;5027015;28;20239;-38
2024/01/18 10:25:26;;;;;;;31.10;27.55;;;1.40;47.40;;;;;;5031794;28;20621;-41
2024/01/18 10:27:56;;;;;;;35.65;28.63;;;1.50;39.60;;;;;;5038938;28;20181;-38
2024/01/18 10:30:22;;;;;;;34.88;29.38;;;1.40;36.30;;;;;;5034035;28;20239;-44
2024/01/18 10:32:48;;;;;;;33.20;27.98;;;1.40;51.90;;;;;;5028863;28;20192;-37
2024/01/18 10:35:19;;;;;;;34.53;29.95;;;1.30;57.40;;;;;;5026231;28;20624;-37
2024/01/18 10:37:44;;;;;;;32.80;27.48;;;1.30;64.80;;;;;;5038649;28;20196;-38
2024/01/18 10:40:10;;;;;;;33.83;28.10;;;1.30;60.30;;;;;;5037766;28;20272;-37
2024/01/18 10:42:37;;;;;;;32.58;28.58;;;1.30;62.10;;;;;;5016366;28;20190;-39
2024/01/18 10:45:05;;;;;;;37.25;30.27;;;1.30;68.80;;;;;;5031680;28;20185;-39
2024/01/18 10:47:31;;;;;;;40.72;30.63;;;1.20;74.60;;;;;;5033190;28;20179;-39
2024/01/18 10:49:59;;;;;;;37.20;29.73;;;1.30;82.80;;;;;;5031901;28;20194;-39
2024/01/18 10:52:26;;;;;;;39.35;29.40;;;1.30;45.30;;;;;;5033776;28;20926;-38
2024/01/18 10:54:53;;;;;;;32.75;29.25;;;1.30;30.50;;;;;;5034476;28;20187;-39
2024/01/18 10:57:19;;;;;;;36.33;29.02;;;1.20;39.80;;;;;;5030542;28;20180;-38
2024/01/18 10:59:44;;;;;;;33.87;28.13;;;1.20;41.40;;;;;;5029851;28;20183;-46
2024/01/18 11:02:11;;;;;;;32.33;26.60;;;1.20;39.00;;;;;;5033149;28;21018;-50
2024/01/18 11:04:37;;;;;;;30.33;27.10;;;1.10;24.20;;;;;;5030775;28;20669;-52
2024/01/18 11:07:05;;;;;;;29.85;26.42;;;1.20;31.00;;;;;;5032543;28;20207;-51
2024/01/18 11:09:32;;;;;;;29.40;26.15;;;1.10;10.60;;;;;;5038453;28;20438;-57
2024/01/18 11:12:00;;;;;;;32.15;27.38;;;1.00;3.00;;;;;;5027057;28;20171;-52
2024/01/18 11:14:27;;;;;;;29.65;26.42;;;0.90;2.90;;;;;;5038569;28;20642;-55
2024/01/18 11:16:53;;;;;;;30.75;26.80;;;0.90;8.90;;;;;;5035416;28;20688;-48
2024/01/18 11:19:41;;;;;;;28.90;26.07;;;0.80;7.90;;;;;;5035670;28;20232;-52
2024/01/18 11:22:20;;;;;;;30.60;26.30;;;0.90;12.50;;;;;;5010961;28;20196;-52
2024/01/18 11:24:46;;;;;;;30.45;27.13;;;0.90;13.90;;;;;;5024142;28;20213;-54
2024/01/18 11:27:19;;;;;;;31.17;26.30;;;1.00;22.70;;;;;;5023513;28;20207;-52
2024/01/18 11:29:48;;;;;;;32.33;28.30;;;1.00;25.90;;;;;;5035542;28;20659;-53
2024/01/18 11:32:14;;;;;;;30.70;27.35;;;1.10;28.10;;;;;;5024792;28;20255;-50
2024/01/18 11:34:40;;;;;;;32.55;28.70;;;1.10;28.50;;;;;;5036152;28;20184;-52
2024/01/18 11:37:13;;;;;;;32.08;28.35;;;1.00;23.50;;;;;;5032302;28;20203;-55
2024/01/18 11:39:48;;;;;;;34.58;29.08;;;1.10;18.00;;;;;;5033222;28;20573;-51
2024/01/18 11:42:20;;;;;;;32.45;28.40;;;1.00;23.70;;;;;;5032830;28;20297;-50
2024/01/18 11:44:58;;;;;;;34.65;28.80;;;1.00;27.10;;;;;;5034735;28;20219;-53
2024/01/18 11:47:27;;;;;;;33.25;29.30;;;1.00;37.00;;;;;;5026825;28;20231;-56
2024/01/18 11:49:53;;;;;;;31.63;27.15;;;0.90;45.00;;;;;;5035762;28;20647;-54
2024/01/18 11:52:23;;;;;;;30.90;27.60;;;0.90;53.20;;;;;;5032771;28;20183;-53
2024/01/18 11:54:54;;;;;;;31.58;28.17;;;0.90;48.30;;;;;;5039859;28;20756;-47
2024/01/18 11:57:21;;;;;;;28.23;25.33;;;0.90;22.60;;;;;;5036506;28;20203;-51
2024/01/18 11:59:47;;;;;;;28.75;24.95;;;0.90;22.20;;;;;;5032709;28;20192;-48
2024/01/18 12:02:13;;;;;;;29.13;26.03;;;0.80;22.10;;;;;;5035232;28;20521;-51
2024/01/18 12:04:39;;;;;;;27.65;24.95;;;0.70;23.80;;;;;;5041432;28;20413;-47
2024/01/18 12:07:10;;;;;;;26.17;23.37;;;0.70;30.20;;;;;;5028449;28;20207;-36
2024/01/18 12:09:35;;;;;;;25.85;23.17;;;0.70;27.80;;;;;;5029080;28;20421;-36
2024/01/18 12:12:02;;;;;;;25.87;23.37;;;0.60;15.40;;;;;;5030370;28;20850;-48
2024/01/18 12:14:28;;;;;;;24.50;22.05;;;0.50;25.20;;;;;;5040741;28;20428;-46
2024/01/18 12:16:54;;;;;;;25.33;22.90;;;0.60;34.30;;;;;;5031644;28;20179;-54
2024/01/18 12:19:33;;;;;;;23.90;21.60;;;0.50;37.10;;;;;;5019050;28;20469;-52
2024/01/18 12:22:05;;;;;;;23.17;21.17;;;0.50;22.40;;;;;;5028993;28;20254;-52
2024/01/18 12:24:32;;;;;;;23.92;21.80;;;0.50;30.00;;;;;;5041214;28;20188;-47
2024/01/18 12:26:58;;;;;;;24.27;22.27;;;0.60;31.70;;;;;;5034610;28;20305;-50
2024/01/18 12:29:24;;;;;;;23.92;21.63;;;0.50;29.20;;;;;;5041007;28;20277;-53
2024/01/18 12:31:50;;;;;;;24.98;22.70;;;0.50;27.90;;;;;;5034166;28;20182;-52
2024/01/18 12:34:19;;;;;;;24.00;21.67;;;0.40;38.50;;;;;;5030240;28;20281;-51